Walters, Louisiana
Current Conditions -  °F | °C
As of 1:53 PM on Friday 28 Nov 2014 (Local Time) from KESF Reporting Station
Clear Clear  
Wind Chill: 62°   Ceiling: Unl
Heat Index: 62°   Visibility: 10mi
Dew Point: 35°   Wind: 9mph
Humidity: 37%   Direction: 180°S
Pressure: 30.26"   Gusts: NA
Location:  31.5028°N, 91.9028°W
Report Text: KESF 281953Z AUTO 18008KT 10SM CLR 17/02 A3026 RMK AO2 SLP247 T01670017
Loading
Personal Weather Stations






























Interactive Weather Map New forecast layout! Learn more

10-Day Weather Forecast

Advertisements
Track Severe Weather on mobile